createdAt,value
2023-03-29T00:01:01.384Z,9.20
2023-03-29T00:06:05.836Z,9.55
2023-03-29T00:11:08.812Z,10.75
2023-03-29T00:16:10.994Z,9.35
2023-03-29T00:21:13.609Z,10.43
2023-03-29T00:26:16.228Z,8.80
2023-03-29T00:31:18.934Z,9.10
2023-03-29T00:36:22.458Z,9.38
2023-03-29T00:41:24.686Z,9.60
2023-03-29T00:46:27.969Z,8.82
2023-03-29T00:51:32.280Z,9.68
2023-03-29T00:56:41.480Z,9.88
2023-03-29T01:01:44.176Z,8.60
2023-03-29T01:06:54.465Z,11.07
2023-03-29T01:11:57.736Z,10.30
2023-03-29T01:17:00.521Z,9.60
2023-03-29T01:22:23.105Z,10.65
2023-03-29T01:27:44.181Z,11.02
2023-03-29T01:32:46.291Z,9.77
2023-03-29T01:37:49.711Z,10.52
2023-03-29T01:43:03.227Z,9.20
2023-03-29T01:48:08.715Z,9.93
2023-03-29T01:53:29.702Z,9.95
2023-03-29T01:58:38.621Z,9.20
2023-03-29T02:03:42.933Z,9.63
2023-03-29T02:08:45.466Z,9.90
2023-03-29T02:13:48.728Z,9.90
2023-03-29T02:18:53.167Z,8.82
2023-03-29T02:23:55.981Z,9.77
2023-03-29T02:28:58.202Z,10.70
2023-03-29T02:34:03.365Z,10.43
2023-03-29T02:39:06.364Z,7.82
2023-03-29T02:44:11.186Z,8.75
2023-03-29T02:49:13.925Z,10.07
2023-03-29T02:54:18.793Z,9.70
2023-03-29T02:59:24.831Z,7.45
2023-03-29T03:04:27.357Z,9.75
2023-03-29T03:09:29.523Z,6.93
2023-03-29T03:14:32.031Z,7.90
2023-03-29T03:19:36.624Z,8.65
2023-03-29T03:24:39.408Z,8.15
2023-03-29T03:43:29.553Z,6.82
2023-03-29T03:48:32.759Z,7.82
2023-03-29T03:53:48.545Z,8.35
2023-03-29T03:59:11.160Z,6.93
2023-03-29T04:04:37.357Z,8.10
2023-03-29T04:09:49.190Z,5.63
2023-03-29T04:15:20.917Z,5.25
2023-03-29T04:20:30.800Z,6.05
2023-03-29T04:25:35.605Z,8.32
2023-03-29T04:30:56.609Z,5.80
2023-03-29T04:41:19.065Z,13.07
2023-03-29T04:46:40.530Z,9.00
2023-03-29T04:52:01.170Z,6.65
2023-03-29T04:57:06.555Z,13.25
2023-03-29T05:02:14.329Z,7.43
2023-03-29T05:07:20.384Z,8.30
2023-03-29T05:12:22.946Z,9.70
2023-03-29T05:17:29.041Z,9.80
2023-03-29T05:22:38.798Z,5.07
2023-03-29T05:27:46.076Z,6.78
2023-03-29T05:32:49.499Z,5.50
2023-03-29T05:37:56.536Z,7.57
2023-03-29T05:42:59.855Z,6.28
2023-03-29T05:48:04.198Z,8.07
2023-03-29T05:53:09.840Z,6.80
2023-03-29T05:58:13.612Z,6.88
2023-03-29T06:03:22.127Z,7.47
2023-03-29T06:08:26.447Z,5.28
2023-03-29T06:13:42.421Z,8.50
2023-03-29T06:18:45.136Z,11.35
2023-03-29T06:23:47.726Z,6.18
2023-03-29T06:28:52.483Z,7.90
2023-03-29T06:33:55.879Z,6.18
2023-03-29T06:39:23.974Z,9.38
2023-03-29T06:44:44.855Z,6.13
2023-03-29T06:49:54.049Z,6.22
2023-03-29T06:55:12.252Z,4.80
2023-03-29T07:00:19.738Z,4.75
2023-03-29T07:05:41.970Z,8.73
2023-03-29T07:10:52.909Z,4.50
2023-03-29T07:16:24.568Z,7.18
2023-03-29T07:21:37.880Z,5.72
2023-03-29T07:26:49.127Z,7.07
2023-03-29T07:31:58.614Z,6.28
2023-03-29T07:37:18.796Z,12.75
2023-03-29T07:42:22.307Z,7.53
2023-03-29T07:47:25.452Z,6.72
2023-03-29T07:52:30.265Z,8.90
2023-03-29T07:57:33.736Z,5.72
2023-03-29T08:02:36.054Z,7.60
2023-03-29T08:07:38.569Z,7.10
2023-03-29T08:12:55.966Z,7.03
2023-03-29T08:18:12.736Z,6.97
2023-03-29T08:23:16.148Z,7.57
2023-03-29T08:28:33.885Z,8.25
2023-03-29T08:33:37.011Z,7.15
2023-03-29T08:38:59.505Z,7.28
2023-03-29T08:44:40.560Z,7.15
2023-03-29T08:49:51.361Z,8.07
2023-03-29T08:54:57.663Z,9.60
2023-03-29T09:05:24.349Z,7.65
2023-03-29T09:10:48.567Z,8.32
2023-03-29T09:15:57.089Z,10.15
2023-03-29T09:21:13.262Z,6.65
2023-03-29T09:26:36.325Z,8.00
2023-03-29T09:31:57.159Z,6.78
2023-03-29T09:37:12.640Z,8.30
2023-03-29T09:42:18.029Z,6.70
2023-03-29T09:47:36.388Z,5.40
2023-03-29T09:52:45.084Z,6.28
2023-03-29T09:57:54.260Z,7.28
2023-03-29T10:02:58.081Z,6.75
2023-03-29T10:08:19.631Z,5.22
2023-03-29T10:13:27.050Z,6.93
2023-03-29T10:18:31.714Z,11.35
2023-03-29T10:23:36.626Z,6.18
2023-03-29T10:28:39.348Z,5.60
2023-03-29T10:33:42.884Z,6.30
2023-03-29T10:38:45.204Z,6.50
2023-03-29T10:43:51.394Z,11.52
2023-03-29T10:49:03.270Z,9.93
2023-03-29T10:54:07.434Z,9.93
2023-03-29T10:59:18.820Z,7.97
2023-03-29T11:04:34.589Z,8.68
2023-03-29T11:09:43.546Z,11.45
2023-03-29T11:14:45.879Z,9.23
2023-03-29T11:20:14.541Z,10.43
2023-03-29T11:25:33.728Z,8.23
2023-03-29T11:30:42.735Z,8.82
2023-03-29T11:35:48.376Z,9.60
2023-03-29T11:40:54.058Z,9.50
2023-03-29T11:46:01.193Z,9.68
2023-03-29T11:51:11.489Z,7.07
2023-03-29T11:56:16.474Z,5.63
2023-03-29T12:01:38.952Z,7.63
2023-03-29T12:06:50.274Z,7.93
2023-03-29T12:11:55.894Z,6.50
2023-03-29T12:17:03.692Z,8.57
2023-03-29T12:22:09.176Z,6.97
2023-03-29T12:27:27.417Z,7.38
2023-03-29T12:32:29.695Z,7.82
2023-03-29T12:37:53.583Z,9.25
2023-03-29T12:43:25.159Z,8.63
2023-03-29T12:54:13.574Z,5.18
2023-03-29T12:59:27.348Z,7.35
2023-03-29T13:04:49.252Z,10.05
2023-03-29T13:29:08.233Z,12.65
2023-03-29T13:34:34.158Z,8.15
2023-03-29T13:39:41.264Z,11.70
2023-03-29T13:44:46.463Z,9.88
2023-03-29T13:49:55.188Z,7.78
2023-03-29T13:55:06.492Z,12.10
2023-03-29T14:00:15.743Z,13.32
2023-03-29T14:05:19.872Z,10.68
2023-03-29T14:10:27.655Z,9.10
2023-03-29T14:15:39.999Z,13.07
2023-03-29T14:20:50.069Z,18.55
2023-03-29T14:25:52.621Z,17.88
2023-03-29T14:30:56.384Z,17.67
2023-03-29T14:36:01.694Z,11.80
2023-03-29T14:41:07.477Z,15.43
2023-03-29T14:46:20.262Z,14.20
2023-03-29T14:51:32.606Z,15.18
2023-03-29T14:56:40.052Z,20.08
2023-03-29T15:01:51.301Z,13.82
2023-03-29T15:07:00.182Z,24.90
2023-03-29T15:12:08.609Z,32.25
2023-03-29T15:17:50.222Z,25.92
2023-03-29T15:28:28.452Z,17.58
2023-03-29T15:33:43.296Z,18.00
2023-03-29T15:38:53.111Z,21.40
2023-03-29T15:44:08.333Z,23.80
2023-03-29T15:49:24.111Z,20.08
2023-03-29T15:54:36.746Z,16.42
2023-03-29T15:59:50.345Z,17.75
2023-03-29T16:04:58.318Z,18.55
2023-03-29T16:10:01.185Z,19.45
2023-03-29T16:15:13.800Z,13.63
2023-03-29T16:20:20.292Z,15.82
2023-03-29T16:25:23.077Z,13.02
2023-03-29T16:30:27.042Z,13.48
2023-03-29T16:35:32.485Z,9.52
2023-03-29T16:40:38.483Z,10.43
2023-03-29T16:45:44.782Z,11.70
2023-03-29T16:50:53.854Z,14.10
2023-03-29T16:55:58.696Z,10.75
2023-03-29T17:01:10.029Z,9.80
2023-03-29T17:06:12.969Z,10.15
2023-03-29T17:11:16.872Z,8.52
2023-03-29T17:16:19.782Z,7.93
2023-03-29T17:21:22.741Z,10.43
2023-03-29T17:26:26.484Z,8.35
2023-03-29T17:31:29.865Z,10.15
2023-03-29T17:36:34.124Z,9.00
2023-03-29T17:41:40.004Z,12.95
2023-03-29T17:46:45.486Z,18.05
2023-03-29T17:51:50.157Z,13.20
2023-03-29T17:56:56.454Z,11.02
2023-03-29T18:02:03.468Z,8.43
2023-03-29T18:07:08.629Z,8.60
2023-03-29T18:12:14.239Z,7.45
2023-03-29T18:17:21.966Z,10.80
2023-03-29T18:22:30.931Z,8.90
2023-03-29T18:27:39.838Z,6.57
2023-03-29T18:32:47.944Z,9.00
2023-03-29T18:37:54.683Z,5.97
2023-03-29T18:43:01.079Z,6.45
2023-03-29T18:48:45.293Z,8.40
2023-03-29T18:53:53.560Z,6.55
2023-03-29T18:59:25.704Z,7.00
2023-03-29T19:04:32.890Z,4.90
2023-03-29T19:09:47.040Z,4.15
2023-03-29T19:14:56.324Z,6.57
2023-03-29T19:25:13.705Z,12.57
2023-03-29T19:30:21.716Z,9.40
2023-03-29T19:35:31.330Z,13.50
2023-03-29T19:40:46.394Z,12.50
2023-03-29T19:45:54.910Z,13.38
2023-03-29T19:51:08.450Z,10.63
2023-03-29T19:56:24.844Z,14.02
2023-03-29T20:01:53.669Z,11.27
2023-03-29T20:07:06.860Z,11.35
2023-03-29T20:12:18.667Z,10.60
2023-03-29T20:17:34.067Z,9.48
2023-03-29T20:28:02.096Z,7.53
2023-03-29T20:33:14.851Z,8.95
2023-03-29T20:44:23.427Z,7.63
2023-03-29T20:49:48.428Z,7.40
2023-03-29T20:55:09.787Z,10.55
2023-03-29T21:00:26.987Z,10.05
2023-03-29T21:12:00.722Z,10.85
2023-03-29T21:17:19.397Z,11.85
2023-03-29T21:28:10.608Z,9.25
2023-03-29T21:34:13.586Z,10.60
2023-03-29T21:46:03.240Z,8.50
2023-03-29T21:57:48.585Z,8.95
2023-03-29T22:09:13.290Z,8.95
2023-03-29T22:15:13.456Z,9.13
2023-03-29T22:21:39.567Z,4.53
2023-03-29T22:27:05.346Z,6.65
2023-03-29T22:32:51.231Z,7.13
2023-03-29T22:38:28.297Z,7.50
2023-03-29T22:50:40.205Z,9.48
2023-03-29T22:56:09.615Z,14.88
2023-03-29T23:07:09.644Z,18.23
2023-03-29T23:12:52.965Z,20.45
2023-03-29T23:18:50.249Z,14.73
2023-03-29T23:24:21.894Z,13.88
2023-03-29T23:53:08.455Z,18.08
2023-03-29T23:58:52.036Z,21.55
